Time;durP1;ratioP1;P1;durP2;ratioP2;P2;SDS_P1;SDS_P2;PMS_P1;PMS_P2;Temp;Humidity;BMP_temperature;BMP_pressure;BME280_temperature;BME280_humidity;BME280_pressure;Samples;Min_cycle;Max_cycle;Signal;HPM_P1;HPM_P2
2022/09/27 00:02:07;;;;;;;18.67;4.80;;;;;;;8.34;100.00;99600.03;5133929;27;20106;-45
2022/09/27 00:04:33;;;;;;;18.83;5.75;;;;;;;8.35;100.00;99604.31;5133742;27;20492;-45
2022/09/27 00:06:59;;;;;;;20.08;5.78;;;;;;;8.36;100.00;99608.63;5132887;27;20031;-46
2022/09/27 00:09:24;;;;;;;18.60;6.15;;;;;;;8.36;100.00;99606.06;5133673;27;20031;-45
2022/09/27 00:11:49;;;;;;;27.65;5.95;;;;;;;8.37;100.00;99610.38;5133652;27;20493;-47
2022/09/27 00:14:15;;;;;;;17.98;6.40;;;;;;;8.37;100.00;99610.38;5133538;28;20019;-46
2022/09/27 00:16:42;;;;;;;17.10;6.20;;;;;;;8.38;100.00;99612.09;5133749;28;20015;-45
2022/09/27 00:19:17;;;;;;;17.40;5.18;;;;;;;8.37;100.00;99620.63;5133864;28;20062;-46
2022/09/27 00:21:43;;;;;;;18.27;5.57;;;;;;;8.38;100.00;99622.38;5133001;28;20023;-45
2022/09/27 00:24:12;;;;;;;11.80;4.13;;;;;;;8.36;100.00;99626.59;5133961;28;20031;-49
2022/09/27 00:26:37;;;;;;;13.23;4.13;;;;;;;8.36;100.00;99629.16;5133546;28;20047;-46
2022/09/27 00:29:03;;;;;;;14.40;3.40;;;;;;;8.35;100.00;99637.69;5132942;28;20107;-48
2022/09/27 00:31:30;;;;;;;11.20;3.75;;;;;;;8.34;100.00;99643.66;5133701;28;20030;-46
2022/09/27 00:33:58;;;;;;;12.52;3.13;;;;;;;8.37;100.00;99642.03;5133405;28;20027;-45
2022/09/27 00:36:25;;;;;;;18.92;2.95;;;;;;;8.36;100.00;99629.16;5133971;28;20474;-45
2022/09/27 00:38:51;;;;;;;15.23;2.83;;;;;;;8.36;100.00;99624.03;5133328;28;20027;-45
2022/09/27 00:41:24;;;;;;;10.45;2.50;;;;;;;8.36;100.00;99624.03;5132769;28;20031;-45
2022/09/27 00:43:56;;;;;;;12.98;2.72;;;;;;;8.34;100.00;99620.56;5133420;28;20102;-44
2022/09/27 00:46:30;;;;;;;8.95;2.30;;;;;;;8.35;100.00;99622.28;5133564;28;20096;-46
2022/09/27 00:49:23;;;;;;;11.85;2.35;;;;;;;8.31;100.00;99635.91;5132971;28;20046;-45
2022/09/27 00:51:56;;;;;;;11.40;2.15;;;;;;;8.29;100.00;99629.88;5132814;28;20074;-47
2022/09/27 00:54:25;;;;;;;7.72;1.90;;;;;;;8.29;100.00;99637.56;5133454;28;20050;-45
2022/09/27 00:56:51;;;;;;;12.82;1.88;;;;;;;8.30;100.00;99641.88;5132447;28;20406;-45
2022/09/27 00:59:24;;;;;;;9.73;1.92;;;;;;;8.27;100.00;99644.41;5133374;28;20482;-46
2022/09/27 01:01:49;;;;;;;8.32;1.80;;;;;;;8.29;100.00;99642.72;5133289;28;20030;-45
2022/09/27 01:04:22;;;;;;;7.70;1.80;;;;;;;8.27;100.00;99654.66;5132665;28;20019;-46
2022/09/27 01:06:48;;;;;;;10.13;1.73;;;;;;;8.26;100.00;99655.50;5133196;28;20019;-45
2022/09/27 01:09:14;;;;;;;13.20;2.28;;;;;;;8.26;100.00;99655.50;5132551;28;20023;-46
2022/09/27 01:11:53;;;;;;;9.75;2.00;;;;;;;8.27;100.00;99655.53;5133274;28;20041;-46
2022/09/27 01:14:24;;;;;;;20.25;2.70;;;;;;;8.27;100.00;99655.53;5133515;28;20035;-46
2022/09/27 01:16:50;;;;;;;9.23;1.85;;;;;;;8.26;100.00;99658.91;5132399;28;20024;-45
2022/09/27 01:19:52;;;;;;;15.33;2.50;;;;;;;8.28;100.00;99646.13;5134560;27;20031;-47
2022/09/27 01:22:31;;;;;;;12.27;2.05;;;;;;;8.22;100.00;99642.63;5136976;27;20632;-44
2022/09/27 01:25:03;;;;;;;11.30;2.08;;;;;;;8.22;100.00;99647.75;5136220;27;20046;-47
2022/09/27 01:28:02;;;;;;;9.88;2.10;;;;;;;8.22;100.00;99652.88;5136841;27;20035;-45
2022/09/27 01:31:00;;;;;;;10.45;2.47;;;;;;;8.20;100.00;99648.56;5136262;27;20046;-44
2022/09/27 01:33:41;;;;;;;11.63;2.65;;;;;;;8.11;100.00;99654.34;5136988;27;20067;-45
2022/09/27 01:36:19;;;;;;;11.27;2.10;;;;;;;8.11;100.00;99654.34;5136804;27;20023;-48
2022/09/27 01:39:08;;;;;;;12.95;2.42;;;;;;;8.07;100.00;99652.56;5135966;27;20019;-46
2022/09/27 01:41:39;;;;;;;17.02;2.38;;;;;;;8.02;100.00;99649.91;5136358;27;20039;-45
2022/09/27 01:44:26;;;;;;;11.13;2.17;;;;;;;8.01;100.00;99653.28;5136735;27;20039;-48
2022/09/27 01:46:55;;;;;;;8.07;2.20;;;;;;;7.96;100.00;99660.03;5136201;27;20424;-46
2022/09/27 01:49:30;;;;;;;13.60;2.50;;;;;;;7.96;100.00;99667.72;5136638;27;20024;-47
2022/09/27 01:52:01;;;;;;;11.55;2.53;;;;;;;7.95;100.00;99667.69;5135765;27;20019;-47
2022/09/27 01:54:51;;;;;;;9.57;2.10;;;;;;;7.93;100.00;99672.81;5136483;27;20481;-45
2022/09/27 01:57:21;;;;;;;12.70;2.50;;;;;;;7.89;100.00;99682.13;5136684;27;20023;-46
2022/09/27 01:59:53;;;;;;;6.90;1.83;;;;;;;7.86;100.00;99673.50;5135497;27;20031;-48
2022/09/27 02:02:23;;;;;;;8.68;2.30;;;;;;;7.86;100.00;99674.38;5136419;27;20094;-46
2022/09/27 02:04:51;;;;;;;12.05;2.15;;;;;;;7.85;100.00;99664.06;5136040;27;20470;-46
2022/09/27 02:07:26;;;;;;;8.13;1.98;;;;;;;7.83;100.00;99661.47;5135277;27;20034;-45
2022/09/27 02:09:57;;;;;;;11.57;2.03;;;;;;;7.79;100.00;99662.25;5136120;27;20023;-46
2022/09/27 02:12:29;;;;;;;10.95;2.13;;;;;;;7.75;100.00;99656.16;5135925;27;20019;-46
2022/09/27 02:15:00;;;;;;;9.75;2.08;;;;;;;7.72;100.00;99668.06;5135853;27;20038;-47
2022/09/27 02:17:43;;;;;;;7.50;1.67;;;;;;;7.68;100.00;99667.16;5136040;27;20023;-45
2022/09/27 02:20:18;;;;;;;9.95;2.30;;;;;;;7.62;100.00;99668.69;5135091;27;20027;-46
2022/09/27 02:22:50;;;;;;;13.90;2.40;;;;;;;7.60;100.00;99662.66;5135885;27;20076;-45
2022/09/27 02:25:29;;;;;;;7.85;1.92;;;;;;;7.58;100.00;99663.50;5136015;27;20110;-47
2022/09/27 02:28:06;;;;;;;6.97;1.70;;;;;;;7.57;100.00;99672.00;5134775;27;20023;-46
2022/09/27 02:30:31;;;;;;;10.32;1.80;;;;;;;7.50;100.00;99667.59;5134618;27;20527;-45
2022/09/27 02:32:57;;;;;;;10.65;2.05;;;;;;;7.49;100.00;99668.41;5135615;27;20030;-46
2022/09/27 02:35:30;;;;;;;5.97;1.50;;;;;;;7.47;100.00;99670.06;5134831;27;20031;-44
2022/09/27 02:37:56;;;;;;;5.82;1.58;;;;;;;7.42;100.00;99671.66;5135706;27;20062;-45
2022/09/27 02:40:23;;;;;;;8.80;1.80;;;;;;;7.39;100.00;99684.41;5135436;27;20470;-46
2022/09/27 02:42:48;;;;;;;12.23;2.03;;;;;;;7.38;100.00;99682.69;5134278;27;20126;-45
2022/09/27 02:45:16;;;;;;;12.77;1.95;;;;;;;7.35;100.00;99680.06;5135665;27;20110;-46
2022/09/27 02:47:54;;;;;;;12.35;1.95;;;;;;;7.33;100.00;99681.69;5134411;27;20023;-45
2022/09/27 02:50:30;;;;;;;;;;;;;;;7.36;100.00;99686.88;5135902;27;20031;-45
2022/09/27 02:53:13;;;;;;;10.73;2.28;;;;;;;7.31;100.00;99685.91;5135324;27;19918;-44
2022/09/27 02:55:55;;;;;;;14.13;2.15;;;;;;;7.27;100.00;99676.41;5134448;27;20049;-45
2022/09/27 02:58:34;;;;;;;10.55;2.08;;;;;;;7.24;100.00;99685.78;5135273;27;20059;-47
2022/09/27 03:01:15;;;;;;;8.95;1.80;;;;;;;7.20;100.00;99671.13;5135154;27;20031;-49
2022/09/27 03:03:43;;;;;;;12.80;1.90;;;;;;;7.17;100.00;99678.75;5134044;27;20037;-46
2022/09/27 03:06:15;;;;;;;16.40;2.47;;;;;;;7.15;100.00;99672.72;5135164;27;20059;-46
2022/09/27 03:08:43;;;;;;;10.15;1.80;;;;;;;7.13;100.00;99668.38;5133810;27;20027;-46
2022/09/27 03:11:08;;;;;;;8.77;1.90;;;;;;;7.09;100.00;99668.31;5135065;27;20030;-44
2022/09/27 03:13:35;;;;;;;14.18;1.90;;;;;;;7.06;100.00;99675.06;5134752;27;20023;-46
2022/09/27 03:16:01;;;;;;;13.07;2.10;;;;;;;7.07;100.00;99667.41;5134073;27;20353;-45
2022/09/27 03:18:26;;;;;;;10.07;2.20;;;;;;;7.03;100.00;99657.06;5134790;27;20466;-45
2022/09/27 03:20:52;;;;;;;12.23;2.60;;;;;;;7.04;100.00;99669.06;5134629;27;20019;-44
2022/09/27 03:23:18;;;;;;;15.63;2.42;;;;;;;7.03;100.00;99667.31;5133969;27;20023;-49
2022/09/27 03:25:43;;;;;;;19.17;2.92;;;;;;;7.01;100.00;99668.97;5134478;27;20038;-45
2022/09/27 03:28:09;;;;;;;14.05;2.30;;;;;;;6.96;100.00;99665.41;5134494;27;20038;-46
2022/09/27 03:30:34;;;;;;;9.80;2.42;;;;;;;6.98;100.00;99684.25;5133427;27;20023;-48
2022/09/27 03:33:00;;;;;;;10.88;2.38;;;;;;;7.00;100.00;99678.34;5134771;27;20392;-46
2022/09/27 03:35:25;;;;;;;12.38;2.70;;;;;;;7.03;100.00;99678.41;5134675;27;20031;-47
2022/09/27 03:37:50;;;;;;;13.73;2.25;;;;;;;7.06;100.00;99686.19;5133453;27;20374;-46
2022/09/27 03:40:16;;;;;;;15.20;3.00;;;;;;;7.06;100.00;99682.75;5134507;27;20033;-45
2022/09/27 03:42:41;;;;;;;14.00;2.40;;;;;;;7.09;100.00;99677.72;5133869;27;20045;-44
2022/09/27 03:45:07;;;;;;;11.88;2.10;;;;;;;7.09;100.00;99693.94;5133438;27;20065;-46
2022/09/27 03:47:32;;;;;;;13.77;2.78;;;;;;;7.16;100.00;99697.53;5134180;27;20031;-47
2022/09/27 03:49:57;;;;;;;12.75;2.55;;;;;;;7.19;100.00;99699.28;5134472;27;20529;-45
2022/09/27 03:52:22;;;;;;;11.30;2.72;;;;;;;7.21;100.00;99716.44;5133540;27;20019;-44
2022/09/27 03:54:48;;;;;;;10.07;2.30;;;;;;;7.27;100.00;99730.25;5133944;27;20419;-44
2022/09/27 03:57:13;;;;;;;14.35;2.63;;;;;;;7.28;100.00;99735.41;5134164;27;20053;-45
2022/09/27 03:59:38;;;;;;;13.00;2.67;;;;;;;7.32;100.00;99742.34;5133497;27;20026;-44
2022/09/27 04:02:04;;;;;;;10.65;2.72;;;;;;;7.34;100.00;99734.69;5134265;27;20027;-44
2022/09/27 04:04:32;;;;;;;14.07;2.92;;;;;;;7.36;100.00;99738.16;5134281;27;20027;-44
2022/09/27 04:06:58;;;;;;;7.22;1.85;;;;;;;7.37;100.00;99734.75;5133259;27;20027;-44
2022/09/27 04:09:23;;;;;;;12.98;2.33;;;;;;;7.37;100.00;99729.63;5134234;27;20039;-50
2022/09/27 04:11:48;;;;;;;5.85;1.85;;;;;;;7.33;100.00;99732.97;5133596;27;20495;-44
2022/09/27 04:14:14;;;;;;;10.50;2.53;;;;;;;7.33;100.00;99728.69;5133093;27;20359;-46
2022/09/27 04:16:39;;;;;;;8.55;2.40;;;;;;;7.34;100.00;99717.63;5133856;27;20023;-44
2022/09/27 04:19:06;;;;;;;15.80;2.50;;;;;;;7.36;100.00;99718.53;5133323;27;20046;-44
2022/09/27 04:21:31;;;;;;;13.18;2.92;;;;;;;7.33;100.00;99712.47;5133581;28;20490;-44
2022/09/27 04:23:57;;;;;;;9.93;2.25;;;;;;;7.31;100.00;99699.63;5134001;28;20031;-48
2022/09/27 04:26:23;;;;;;;14.32;2.72;;;;;;;7.31;100.00;99694.47;5133213;28;20078;-45
2022/09/27 04:28:50;;;;;;;11.52;2.50;;;;;;;7.30;100.00;99692.75;5133488;28;20051;-45
2022/09/27 04:31:15;;;;;;;12.15;2.17;;;;;;;7.28;100.00;99689.25;5133917;28;20019;-44
2022/09/27 04:33:40;;;;;;;10.27;2.30;;;;;;;7.29;100.00;99685.88;5132848;28;20022;-47
2022/09/27 04:38:50;;;;;;;11.43;1.80;;;;;;;7.21;100.00;99695.94;5133820;28;20508;-46
2022/09/27 04:41:15;;;;;;;10.77;1.70;;;;;;;7.16;100.00;99694.97;5132604;28;20015;-46
2022/09/27 04:43:40;;;;;;;9.60;1.58;;;;;;;7.13;100.00;99689.78;5133576;28;20027;-47
2022/09/27 04:46:05;;;;;;;7.57;1.63;;;;;;;7.07;100.00;99687.06;5134051;28;20023;-45
2022/09/27 04:48:31;;;;;;;7.28;1.65;;;;;;;7.04;100.00;99689.56;5132645;28;20378;-46
2022/09/27 04:51:01;;;;;;;4.90;1.50;;;;;;;7.02;100.00;99698.88;5133761;28;20020;-47
2022/09/27 04:53:28;;;;;;;8.35;1.55;;;;;;;6.98;100.00;99709.88;5133724;27;20123;-46
2022/09/27 04:55:54;;;;;;;10.23;1.50;;;;;;;6.98;100.00;99709.88;5136535;27;20037;-46
2022/09/27 04:58:20;;;;;;;8.52;1.73;;;;;;;6.96;100.00;99722.66;5137751;27;20020;-44
2022/09/27 05:00:47;;;;;;;6.20;1.67;;;;;;;6.96;100.00;99716.66;5137152;27;20477;-46
2022/09/27 05:03:13;;;;;;;10.27;1.50;;;;;;;6.96;100.00;99716.66;5136740;27;20027;-45
2022/09/27 05:05:40;;;;;;;7.70;1.40;;;;;;;6.96;100.00;99727.78;5137271;27;20027;-45
2022/09/27 05:08:05;;;;;;;6.82;1.70;;;;;;;6.98;100.00;99730.38;5137265;27;20527;-48
2022/09/27 05:10:31;;;;;;;7.03;1.83;;;;;;;6.97;100.00;99744.00;5136152;27;20023;-46
2022/09/27 05:12:56;;;;;;;7.05;1.30;;;;;;;7.00;100.00;99747.53;5137491;27;20080;-48
2022/09/27 05:15:21;;;;;;;4.93;1.40;;;;;;;6.97;100.00;99754.25;5136372;27;20023;-45
2022/09/27 05:17:50;;;;;;;8.82;1.42;;;;;;;6.97;100.00;99759.38;5137090;27;20144;-44
2022/09/27 05:20:15;;;;;;;6.47;1.50;;;;;;;6.98;100.00;99748.31;5137510;27;20084;-45
2022/09/27 05:22:41;;;;;;;6.43;1.65;;;;;;;6.98;100.00;99750.88;5136028;27;20462;-46
2022/09/27 05:25:06;;;;;;;9.55;1.85;;;;;;;6.96;100.00;99753.41;5136962;27;20434;-44
2022/09/27 05:27:32;;;;;;;5.45;1.50;;;;;;;6.96;100.00;99752.50;5136633;27;20027;-45
2022/09/27 05:30:00;;;;;;;11.32;1.73;;;;;;;6.97;100.00;99754.25;5136062;27;20052;-46
2022/09/27 05:32:26;;;;;;;6.88;1.50;;;;;;;6.94;100.00;99743.94;5136880;27;20067;-45
2022/09/27 05:34:52;;;;;;;4.95;1.50;;;;;;;6.95;100.00;99736.28;5136630;27;20023;-45
2022/09/27 05:37:18;;;;;;;6.82;1.67;;;;;;;6.95;100.00;99743.97;5135947;27;20038;-44
2022/09/27 05:39:45;;;;;;;10.70;2.08;;;;;;;6.96;100.00;99742.25;5136460;27;20031;-44
2022/09/27 05:42:11;;;;;;;13.48;1.70;;;;;;;6.95;100.00;99738.00;5136687;27;20054;-47
2022/09/27 05:44:38;;;;;;;6.47;1.92;;;;;;;6.96;100.00;99737.13;5135842;27;20098;-44
2022/09/27 05:47:04;;;;;;;6.82;1.73;;;;;;;6.96;100.00;99732.03;5136636;27;20030;-44
2022/09/27 05:49:29;;;;;;;6.07;1.98;;;;;;;6.96;100.00;99724.34;5136604;27;20110;-47
2022/09/27 05:51:55;;;;;;;7.93;1.90;;;;;;;6.96;100.00;99729.44;5135495;27;20110;-47
2022/09/27 05:54:20;;;;;;;7.22;1.60;;;;;;;6.97;100.00;99728.63;5136448;27;20031;-47
2022/09/27 05:56:45;;;;;;;7.97;2.10;;;;;;;6.95;100.00;99723.47;5136342;27;20020;-46
2022/09/27 05:59:11;;;;;;;7.05;1.70;;;;;;;6.95;100.00;99710.66;5135570;27;20031;-50
2022/09/27 06:01:36;;;;;;;8.35;1.77;;;;;;;6.92;100.00;99721.69;5136205;27;20028;-48
2022/09/27 06:04:03;;;;;;;7.05;1.63;;;;;;;6.92;100.00;99731.09;5136306;27;20107;-49
2022/09/27 06:06:28;;;;;;;6.68;1.45;;;;;;;6.93;100.00;99725.13;5134231;27;20056;-50
2022/09/27 06:08:54;;;;;;;6.63;2.08;;;;;;;6.94;100.00;99728.56;5135750;27;20027;-50
2022/09/27 06:11:19;;;;;;;5.53;1.90;;;;;;;6.94;100.00;99723.44;5136384;27;20106;-50
2022/09/27 06:13:44;;;;;;;10.93;2.10;;;;;;;6.96;100.00;99720.09;5135255;27;20019;-47
2022/09/27 06:16:10;;;;;;;7.07;2.00;;;;;;;6.95;100.00;99722.63;5135965;27;20454;-50
2022/09/27 06:18:36;;;;;;;10.13;2.20;;;;;;;6.97;100.00;99731.19;5134879;27;20476;-49
2022/09/27 06:21:03;;;;;;;8.40;2.30;;;;;;;6.98;100.00;99740.63;5135948;27;20042;-49
2022/09/27 06:23:31;;;;;;;4.93;2.00;;;;;;;6.94;100.00;99755.03;5135786;27;20387;-48
2022/09/27 06:26:01;;;;;;;7.43;2.25;;;;;;;6.95;100.00;99746.53;5135162;27;20030;-49
2022/09/27 06:28:26;;;;;;;5.32;1.70;;;;;;;6.94;100.00;99738.81;5135951;27;20066;-50
2022/09/27 06:30:51;;;;;;;4.97;1.88;;;;;;;6.95;100.00;99735.44;5135663;27;20054;-50
2022/09/27 06:33:19;;;;;;;8.00;2.00;;;;;;;7.00;100.00;99746.66;5135096;27;20424;-51
2022/09/27 06:35:45;;;;;;;6.65;1.85;;;;;;;6.99;100.00;99750.06;5135377;27;20031;-49
2022/09/27 06:38:12;;;;;;;5.15;1.85;;;;;;;6.97;100.00;99751.69;5135574;27;20020;-51
2022/09/27 06:40:38;;;;;;;5.57;2.00;;;;;;;6.99;100.00;99745.78;5134693;27;20031;-48
2022/09/27 06:43:08;;;;;;;4.85;2.00;;;;;;;6.99;100.00;99747.50;5135320;27;20088;-50
2022/09/27 06:45:34;;;;;;;3.42;1.83;;;;;;;6.99;100.00;99742.38;5135225;27;20084;-50
2022/09/27 06:48:01;;;;;;;5.30;1.90;;;;;;;6.95;100.00;99736.28;5134435;27;20378;-48
2022/09/27 06:50:27;;;;;;;7.53;2.80;;;;;;;6.94;100.00;99724.28;5135284;27;20097;-49
2022/09/27 06:52:52;;;;;;;5.18;2.65;;;;;;;6.95;100.00;99728.59;5134917;27;20489;-49
2022/09/27 06:55:18;;;;;;;8.10;3.08;;;;;;;6.96;100.00;99738.03;5134736;27;20475;-50
2022/09/27 07:00:27;;;;;;;9.00;4.20;;;;;;;6.98;100.00;99745.75;5135626;27;20081;-48
2022/09/27 07:02:59;;;;;;;9.07;4.60;;;;;;;7.01;100.00;99735.56;5134110;27;20018;-46
2022/09/27 07:05:29;;;;;;;9.10;4.55;;;;;;;6.99;100.00;99747.50;5135261;27;20023;-49
2022/09/27 07:07:57;;;;;;;11.82;5.40;;;;;;;7.04;100.00;99746.78;5134086;27;20023;-50
2022/09/27 07:10:31;;;;;;;11.13;4.68;;;;;;;7.03;100.00;99750.16;5135013;27;20027;-50
2022/09/27 07:13:02;;;;;;;9.95;5.47;;;;;;;7.12;100.00;99752.09;5134790;27;20330;-50
2022/09/27 07:15:27;;;;;;;9.52;5.78;;;;;;;7.21;100.00;99749.75;5134016;27;20050;-49
2022/09/27 07:17:57;;;;;;;8.88;6.13;;;;;;;7.18;100.00;99761.63;5134481;27;20020;-47
2022/09/27 07:20:23;;;;;;;11.52;5.85;;;;;;;7.23;100.00;99762.59;5134773;27;20478;-51
2022/09/27 07:22:48;;;;;;;11.20;6.82;;;;;;;7.28;100.00;99757.59;5133816;27;20023;-49
2022/09/27 07:25:14;;;;;;;11.77;6.93;;;;;;;7.32;100.00;99761.97;5134817;27;20164;-48
2022/09/27 07:27:40;;;;;;;9.60;6.90;;;;;;;7.33;100.00;99763.72;5134353;27;20072;-48
2022/09/27 07:30:07;;;;;;;10.55;6.75;;;;;;;7.36;100.00;99768.91;5133811;27;20031;-48
2022/09/27 07:32:35;;;;;;;11.10;6.47;;;;;;;7.38;100.00;99767.25;5134265;27;20465;-48
2022/09/27 07:35:01;;;;;;;;;;;;;;;7.45;100.00;99769.16;5134848;27;20397;-49
2022/09/27 07:37:26;;;;;;;11.32;6.65;;;;;;;7.48;100.00;99768.38;5133751;27;20002;-48
2022/09/27 07:39:51;;;;;;;10.18;7.45;;;;;;;7.49;100.00;99778.66;5134245;27;20023;-50
2022/09/27 07:42:16;;;;;;;11.60;7.65;;;;;;;7.55;100.00;99771.13;5134254;27;20265;-49
2022/09/27 07:44:42;;;;;;;10.93;7.60;;;;;;;7.62;100.00;99771.25;5133142;27;20374;-51
2022/09/27 07:47:07;;;;;;;12.43;9.13;;;;;;;7.60;100.00;99772.94;5134431;27;20027;-51
2022/09/27 07:49:32;;;;;;;30.85;19.13;;;;;;;7.63;100.00;99778.13;5134270;27;20084;-48
2022/09/27 07:52:01;;;;;;;15.18;9.88;;;;;;;7.68;100.00;99779.09;5133568;27;20019;-50
2022/09/27 07:54:26;;;;;;;12.20;9.23;;;;;;;7.68;100.00;99779.09;5134134;27;20382;-50
2022/09/27 07:56:51;;;;;;;12.63;8.10;;;;;;;7.70;100.00;99786.00;5133952;27;20107;-49
2022/09/27 07:59:17;;;;;;;13.18;8.80;;;;;;;7.73;100.00;99780.06;5133275;27;20056;-50
2022/09/27 08:01:45;;;;;;;12.85;9.02;;;;;;;7.78;100.00;99783.63;5134007;27;20030;-47
2022/09/27 08:04:10;;;;;;;16.17;8.90;;;;;;;7.81;100.00;99793.09;5133167;27;20019;-49
2022/09/27 08:06:35;;;;;;;12.98;8.75;;;;;;;7.81;100.00;99782.81;5134038;27;20020;-49
2022/09/27 08:09:05;;;;;;;14.80;8.35;;;;;;;7.82;100.00;99794.81;5133961;27;20027;-51
2022/09/27 08:11:30;;;;;;;13.93;8.48;;;;;;;7.84;100.00;99796.59;5132981;27;20088;-45
2022/09/27 08:13:56;;;;;;;15.05;8.30;;;;;;;7.88;100.00;99794.97;5133833;27;20474;-49
2022/09/27 08:16:21;;;;;;;16.10;11.75;;;;;;;7.93;100.00;99795.06;5134101;27;20019;-45
2022/09/27 08:18:46;;;;;;;21.52;13.85;;;;;;;7.99;100.00;99788.41;5133007;27;20027;-48
2022/09/27 08:21:12;;;;;;;14.85;10.48;;;;;;;8.08;100.00;99787.72;5133974;27;20471;-49
2022/09/27 08:23:37;;;;;;;16.40;11.07;;;;;;;8.10;100.00;99790.34;5133504;28;20034;-50
2022/09/27 08:26:02;;;;;;;13.60;9.50;;;;;;;8.20;100.00;99789.72;5132982;28;20102;-48
2022/09/27 08:28:28;;;;;;;15.15;9.90;;;;;;;8.17;100.00;99793.09;5133719;27;20476;-49
2022/09/27 08:30:56;;;;;;;17.08;9.52;;;;;;;8.16;100.00;99796.47;5138000;27;20027;-51
2022/09/27 08:33:21;;;;;;;13.95;10.80;;;;;;;8.28;100.00;99795.03;5137236;27;20363;-50
2022/09/27 08:35:46;;;;;;;18.77;11.32;;;;;;;8.35;100.00;99792.63;5137871;27;20484;-50
2022/09/27 08:38:12;;;;;;;17.30;12.35;;;;;;;8.35;100.00;99790.06;5137950;27;20434;-50
2022/09/27 08:41:19;;;;;;;15.30;11.43;;;;;;;8.37;100.00;99790.09;5136862;27;20107;-51
2022/09/27 08:43:44;;;;;;;17.30;13.02;;;;;;;8.38;100.00;99791.81;5054350;28;20048;-48
2022/09/27 08:46:27;;;;;;;19.50;14.00;;;;;;;8.38;100.00;99792.66;5120281;27;20110;-51
2022/09/27 08:49:01;;;;;;;15.70;13.90;;;;;;;8.35;100.00;99802.00;5137499;27;20647;-48
2022/09/27 08:51:29;;;;;;;17.58;14.77;;;;;;;8.37;100.00;99805.47;5137660;27;20098;-51
2022/09/27 08:54:01;;;;;;;23.33;17.75;;;;;;;8.38;100.00;99812.34;5136810;27;20469;-50
2022/09/27 08:56:27;;;;;;;21.42;16.38;;;;;;;8.41;100.00;99812.41;5137594;27;20573;-51
2022/09/27 08:59:01;;;;;;;21.52;16.67;;;;;;;8.35;100.00;99818.28;5137495;27;20047;-47
2022/09/27 09:01:27;;;;;;;22.58;18.30;;;;;;;8.34;100.00;99810.53;5136776;27;20020;-48
2022/09/27 09:03:56;;;;;;;23.55;18.45;;;;;;;8.33;100.00;99826.78;5137158;27;20042;-49
2022/09/27 09:06:33;;;;;;;23.52;18.67;;;;;;;8.28;100.00;99826.69;5137313;27;20462;-49
2022/09/27 09:09:16;;;;;;;33.00;24.25;;;;;;;8.27;100.00;99834.34;5136659;27;20112;-51
2022/09/27 09:15:12;;;;;;;27.40;21.52;;;;;;;8.26;100.00;99830.03;5136268;27;20162;-51
2022/09/27 09:17:54;;;;;;;32.13;23.23;;;;;;;8.19;100.00;99832.47;5137051;27;20027;-50
2022/09/27 09:20:40;;;;;;;28.08;22.38;;;;;;;8.23;100.00;99835.97;5137099;27;20368;-50
2022/09/27 09:23:11;;;;;;;35.87;25.30;;;;;;;8.19;100.00;99840.16;5136482;27;20095;-49
2022/09/27 09:25:57;;;;;;;32.92;24.15;;;;;;;8.20;100.00;99849.59;5136801;27;20381;-47
2022/09/27 09:28:38;;;;;;;34.13;26.33;;;;;;;8.20;100.00;99846.19;5137078;27;20059;-49
2022/09/27 09:31:19;;;;;;;33.60;25.80;;;;;;;8.16;100.00;99842.69;5136966;27;20097;-51
2022/09/27 09:34:13;;;;;;;35.10;26.65;;;;;;;8.21;100.00;99841.06;5136741;27;20030;-47
2022/09/27 09:36:45;;;;;;;31.70;24.27;;;;;;;8.23;100.00;99831.69;5135943;27;20027;-50
2022/09/27 09:39:16;;;;;;;32.25;25.90;;;;;;;8.28;100.00;99829.25;5136711;27;20027;-49
2022/09/27 09:42:05;;;;;;;28.73;22.63;;;;;;;8.31;100.00;99823.31;5136234;27;20112;-51
2022/09/27 09:44:45;;;;;;;22.40;15.93;;;;;;;8.24;100.00;99820.59;5135835;27;20032;-45
2022/09/27 09:47:26;;;;;;;22.75;17.85;;;;;;;8.26;100.00;99819.78;5136612;27;20031;-51
2022/09/27 09:49:57;;;;;;;24.45;18.27;;;;;;;8.20;100.00;99829.06;5135603;27;20092;-49
2022/09/27 09:52:28;;;;;;;27.35;19.45;;;;;;;8.16;100.00;99819.56;5136784;27;20019;-49
2022/09/27 09:55:02;;;;;;;25.48;20.25;;;;;;;8.19;100.00;99823.91;5136408;27;20106;-47
2022/09/27 09:57:37;;;;;;;25.95;19.85;;;;;;;8.19;100.00;99824.75;5135764;27;20027;-50
2022/09/27 10:00:11;;;;;;;23.33;19.35;;;;;;;8.16;100.00;99832.41;5136404;27;20125;-50
2022/09/27 10:02:39;;;;;;;27.45;19.88;;;;;;;8.18;100.00;99833.28;5136356;27;20035;-47
2022/09/27 10:05:06;;;;;;;30.08;20.98;;;;;;;8.21;100.00;99835.94;5135686;27;20024;-49
2022/09/27 10:07:35;;;;;;;30.75;23.17;;;;;;;8.23;100.00;99834.25;5136051;27;20027;-49
2022/09/27 10:10:03;;;;;;;25.05;17.83;;;;;;;8.26;100.00;99827.47;5136198;27;20031;-48
2022/09/27 10:12:29;;;;;;;18.58;11.20;;;;;;;8.20;100.00;99834.22;5135238;27;20073;-50
2022/09/27 10:14:57;;;;;;;14.73;11.38;;;;;;;8.14;100.00;99836.63;5135917;27;20031;-51
2022/09/27 10:17:29;;;;;;;11.82;7.22;;;;;;;8.06;100.00;99831.31;5136279;27;20040;-49
2022/09/27 10:19:57;;;;;;;11.82;7.68;;;;;;;8.08;100.00;99839.94;5135174;27;20023;-48
2022/09/27 10:22:35;;;;;;;11.07;5.75;;;;;;;8.02;100.00;99833.78;5136082;27;20034;-49
2022/09/27 10:25:05;;;;;;;8.57;6.38;;;;;;;8.05;100.00;99836.41;5135190;27;20060;-49
2022/09/27 10:27:41;;;;;;;10.05;5.22;;;;;;;8.04;100.00;99843.25;5135787;27;20023;-50
2022/09/27 10:30:22;;;;;;;9.35;4.07;;;;;;;8.07;100.00;99837.34;5135712;27;20355;-49
2022/09/27 10:32:51;;;;;;;8.50;4.15;;;;;;;8.08;100.00;99846.75;5134742;27;20528;-49
2022/09/27 10:35:42;;;;;;;8.55;4.15;;;;;;;8.11;100.00;99848.50;5135691;27;20023;-50
2022/09/27 10:38:24;;;;;;;9.90;5.35;;;;;;;8.22;100.00;99842.81;5136059;27;20039;-47
2022/09/27 10:40:54;;;;;;;7.50;3.50;;;;;;;8.19;100.00;99841.88;5134700;27;20031;-50
2022/09/27 10:43:34;;;;;;;9.45;5.80;;;;;;;8.18;100.00;99846.13;5135359;27;20114;-49
2022/09/27 10:46:11;;;;;;;5.00;2.30;;;;;;;8.12;100.00;99840.88;5134696;27;20019;-47
2022/09/27 10:48:38;;;;;;;6.05;2.40;;;;;;;8.15;100.00;99840.94;5135152;27;20374;-48
2022/09/27 10:51:06;;;;;;;5.50;2.05;;;;;;;8.21;100.00;99845.31;5135269;27;20019;-49
2022/09/27 10:53:34;;;;;;;6.95;3.72;;;;;;;8.14;100.00;99848.59;5134053;27;20068;-49
2022/09/27 10:56:00;;;;;;;10.00;4.30;;;;;;;8.17;100.00;99844.41;5135400;27;20031;-50
2022/09/27 10:58:30;;;;;;;10.20;5.35;;;;;;;8.08;100.00;99849.31;5135139;27;20019;-49
2022/09/27 11:01:00;;;;;;;3.65;1.40;;;;;;;8.05;100.00;99846.69;5134681;27;20031;-45
2022/09/27 11:03:27;;;;;;;5.32;2.38;;;;;;;8.13;100.00;99847.72;5135536;27;20023;-47
2022/09/27 11:05:54;;;;;;;;;;;;;;;8.22;100.00;99842.81;5135408;27;20026;-48
2022/09/27 11:08:22;;;;;;;6.95;2.60;;;;;;;8.19;100.00;99847.00;5134326;27;19911;-47
2022/09/27 11:11:12;;;;;;;6.75;3.00;;;;;;;8.27;100.00;99839.50;5134855;27;20039;-46
2022/09/27 11:13:38;;;;;;;9.20;4.85;;;;;;;8.20;100.00;99847.03;5134693;27;20480;-46
2022/09/27 11:16:10;;;;;;;6.97;3.03;;;;;;;8.23;100.00;99848.81;5134232;27;20020;-47
2022/09/27 11:19:12;;;;;;;8.48;4.18;;;;;;;8.24;100.00;99845.41;5134735;27;20080;-47
2022/09/27 11:22:08;;;;;;;3.60;1.70;;;;;;;8.25;100.00;99844.59;5134153;27;20055;-46
2022/09/27 11:24:57;;;;;;;10.70;6.03;;;;;;;8.30;100.00;99834.41;5134666;27;20044;-46
2022/09/27 11:27:37;;;;;;;7.25;3.00;;;;;;;8.42;100.00;99834.69;5134588;27;20027;-48
2022/09/27 11:30:18;;;;;;;7.50;3.53;;;;;;;8.55;100.00;99836.72;5134099;27;20015;-46
2022/09/27 11:33:05;;;;;;;7.28;3.47;;;;;;;8.69;100.00;99833.59;5134589;27;20027;-46
2022/09/27 11:35:49;;;;;;;6.10;2.92;;;;;;;8.67;100.00;99822.41;5133529;27;20409;-42
2022/09/27 11:38:16;;;;;;;2.47;1.17;;;;;;;8.76;100.00;99827.72;5134524;27;20031;-46
2022/09/27 11:41:15;;;;;;;2.28;0.70;;;;;;;8.76;100.00;99814.88;5134486;27;20039;-47
2022/09/27 11:44:03;;;;;;;4.18;1.50;;;;;;;8.89;100.00;99816.00;5133687;27;20046;-45
2022/09/27 11:46:33;;;;;;;2.78;0.75;;;;;;;9.17;100.00;99807.09;5134278;27;20022;-48
2022/09/27 11:49:29;;;;;;;2.95;1.10;;;;;;;9.22;100.00;99813.19;5134031;27;20517;-47
2022/09/27 11:52:28;;;;;;;2.90;0.70;;;;;;;9.49;100.00;99814.53;5134295;27;20414;-48
2022/09/27 11:55:02;;;;;;;5.65;2.17;;;;;;;9.49;100.00;99817.09;5134041;27;20114;-42